EmailTwitter


Surface observations / United Kingdom / EGTE (03839)

Regions: Quebec | Canada | USA | Europe | France | UK | Elsewhere
Station
Display
Info & Location for EGTE (03839) | Help decoding METAR

Weather Conditions observed on 2019/02/19 at 22:50 UTC at EXETER AIRPORT, UK (EGTE)

Sky conditions: variable clouds.

Temperature: 9.0 Celsius.

Dewpoint: 6.0 Celsius.

Relative Humidity: 81%

Windchill Factor: 7.

Winds: Southwest at 15 km/h or 8 knots.

Mean Sea level Pressure: 101.70 kilopascals.

Horizontal visibility: 6.21 statute miles or 9.94 kilometers.

Coded METAR:

EGTE 192250Z 21008KT 9999 SCT019 09/06 Q1017=